sensor_id;sensor_type;location;lat;lon;timestamp;pressure;altitude;pressure_sealevel;temperature
66113;BMP280;52893;52.870;5.822;2022-11-09T00:00:40;100337.50;;;12.61
66113;BMP280;52893;52.870;5.822;2022-11-09T00:03:08;100331.31;;;12.64
66113;BMP280;52893;52.870;5.822;2022-11-09T00:05:35;100333.34;;;12.67
66113;BMP280;52893;52.870;5.822;2022-11-09T00:08:04;100335.75;;;12.69
66113;BMP280;52893;52.870;5.822;2022-11-09T00:10:33;100326.38;;;12.70
66113;BMP280;52893;52.870;5.822;2022-11-09T00:13:01;100328.78;;;12.71
66113;BMP280;52893;52.870;5.822;2022-11-09T00:15:28;100322.84;;;12.69
66113;BMP280;52893;52.870;5.822;2022-11-09T00:17:55;100324.16;;;12.75
66113;BMP280;52893;52.870;5.822;2022-11-09T00:20:25;100330.63;;;12.83
66113;BMP280;52893;52.870;5.822;2022-11-09T00:22:53;100318.16;;;12.85
66113;BMP280;52893;52.870;5.822;2022-11-09T00:25:20;100304.75;;;12.80
66113;BMP280;52893;52.870;5.822;2022-11-09T00:27:48;100297.75;;;12.83
66113;BMP280;52893;52.870;5.822;2022-11-09T00:30:15;100306.34;;;12.97
66113;BMP280;52893;52.870;5.822;2022-11-09T00:32:45;100311.88;;;13.00
66113;BMP280;52893;52.870;5.822;2022-11-09T00:35:13;100321.44;;;13.07
66113;BMP280;52893;52.870;5.822;2022-11-09T00:37:40;100320.28;;;13.08
66113;BMP280;52893;52.870;5.822;2022-11-09T00:40:10;100324.34;;;13.14
66113;BMP280;52893;52.870;5.822;2022-11-09T00:42:37;100320.38;;;13.11
66113;BMP280;52893;52.870;5.822;2022-11-09T00:45:07;100322.06;;;13.16
66113;BMP280;52893;52.870;5.822;2022-11-09T00:47:34;100323.34;;;13.22
66113;BMP280;52893;52.870;5.822;2022-11-09T00:50:02;100322.63;;;13.25
66113;BMP280;52893;52.870;5.822;2022-11-09T00:52:29;100311.94;;;13.20
66113;BMP280;52893;52.870;5.822;2022-11-09T00:54:57;100324.91;;;13.38
66113;BMP280;52893;52.870;5.822;2022-11-09T00:57:24;100330.16;;;13.43
66113;BMP280;52893;52.870;5.822;2022-11-09T00:59:51;100323.88;;;13.43
66113;BMP280;52893;52.870;5.822;2022-11-09T01:02:20;100342.84;;;13.51
66113;BMP280;52893;52.870;5.822;2022-11-09T01:04:48;100340.91;;;13.52
66113;BMP280;52893;52.870;5.822;2022-11-09T01:07:15;100337.69;;;13.50
66113;BMP280;52893;52.870;5.822;2022-11-09T01:09:42;100328.97;;;13.44
66113;BMP280;52893;52.870;5.822;2022-11-09T01:12:10;100334.72;;;13.39
66113;BMP280;52893;52.870;5.822;2022-11-09T01:14:37;100328.81;;;13.37
66113;BMP280;52893;52.870;5.822;2022-11-09T01:17:04;100340.50;;;13.34
66113;BMP280;52893;52.870;5.822;2022-11-09T01:19:33;100323.09;;;13.27
66113;BMP280;52893;52.870;5.822;2022-11-09T01:22:00;100321.66;;;13.33
66113;BMP280;52893;52.870;5.822;2022-11-09T01:24:27;100326.00;;;13.34
66113;BMP280;52893;52.870;5.822;2022-11-09T01:26:55;100322.81;;;13.32
66113;BMP280;52893;52.870;5.822;2022-11-09T01:29:22;100325.53;;;13.32
66113;BMP280;52893;52.870;5.822;2022-11-09T01:31:49;100318.47;;;13.31
66113;BMP280;52893;52.870;5.822;2022-11-09T01:34:16;100319.63;;;13.30
66113;BMP280;52893;52.870;5.822;2022-11-09T01:36:45;100319.91;;;13.25
66113;BMP280;52893;52.870;5.822;2022-11-09T01:39:12;100315.47;;;13.20
66113;BMP280;52893;52.870;5.822;2022-11-09T01:41:39;100315.84;;;13.19
66113;BMP280;52893;52.870;5.822;2022-11-09T01:44:09;100309.19;;;13.20
66113;BMP280;52893;52.870;5.822;2022-11-09T01:46:44;100304.00;;;13.15
66113;BMP280;52893;52.870;5.822;2022-11-09T01:49:20;100311.44;;;13.14
66113;BMP280;52893;52.870;5.822;2022-11-09T01:51:52;100319.56;;;13.11
66113;BMP280;52893;52.870;5.822;2022-11-09T01:54:24;100313.94;;;13.03
66113;BMP280;52893;52.870;5.822;2022-11-09T01:56:58;100311.88;;;13.00
66113;BMP280;52893;52.870;5.822;2022-11-09T01:59:29;100307.47;;;12.96
66113;BMP280;52893;52.870;5.822;2022-11-09T02:01:58;100305.44;;;12.93
66113;BMP280;52893;52.870;5.822;2022-11-09T02:04:29;100301.72;;;12.85
66113;BMP280;52893;52.870;5.822;2022-11-09T02:07:00;100309.94;;;12.85
66113;BMP280;52893;52.870;5.822;2022-11-09T02:09:32;100302.44;;;12.82
66113;BMP280;52893;52.870;5.822;2022-11-09T02:12:00;100307.03;;;12.78
66113;BMP280;52893;52.870;5.822;2022-11-09T02:14:29;100321.88;;;12.77
66113;BMP280;52893;52.870;5.822;2022-11-09T02:16:57;100318.69;;;12.75
66113;BMP280;52893;52.870;5.822;2022-11-09T02:19:25;100311.63;;;12.74
66113;BMP280;52893;52.870;5.822;2022-11-09T02:21:53;100317.81;;;12.71
66113;BMP280;52893;52.870;5.822;2022-11-09T02:24:24;100319.78;;;12.71
66113;BMP280;52893;52.870;5.822;2022-11-09T02:26:52;100313.84;;;12.69
66113;BMP280;52893;52.870;5.822;2022-11-09T02:29:22;100320.56;;;12.71
66113;BMP280;52893;52.870;5.822;2022-11-09T02:31:54;100311.63;;;12.74
66113;BMP280;52893;52.870;5.822;2022-11-09T02:34:23;100315.69;;;12.80
66113;BMP280;52893;52.870;5.822;2022-11-09T02:36:52;100309.84;;;12.82
66113;BMP280;52893;52.870;5.822;2022-11-09T02:39:23;100319.56;;;12.79
66113;BMP280;52893;52.870;5.822;2022-11-09T02:41:54;100318.84;;;12.82
66113;BMP280;52893;52.870;5.822;2022-11-09T02:44:22;100317.72;;;12.83
66113;BMP280;52893;52.870;5.822;2022-11-09T02:46:50;100320.88;;;12.85
66113;BMP280;52893;52.870;5.822;2022-11-09T02:49:18;100313.03;;;12.84
66113;BMP280;52893;52.870;5.822;2022-11-09T02:51:46;100321.34;;;12.87
66113;BMP280;52893;52.870;5.822;2022-11-09T02:54:14;100317.47;;;12.88
66113;BMP280;52893;52.870;5.822;2022-11-09T02:56:41;100307.47;;;12.80
66113;BMP280;52893;52.870;5.822;2022-11-09T02:59:09;100320.66;;;12.90
66113;BMP280;52893;52.870;5.822;2022-11-09T03:01:37;100317.94;;;12.90
66113;BMP280;52893;52.870;5.822;2022-11-09T03:04:04;100313.59;;;12.89
66113;BMP280;52893;52.870;5.822;2022-11-09T03:06:32;100316.72;;;12.91
66113;BMP280;52893;52.870;5.822;2022-11-09T03:09:04;100314.44;;;12.93
66113;BMP280;52893;52.870;5.822;2022-11-09T03:11:33;100294.66;;;12.84
66113;BMP280;52893;52.870;5.822;2022-11-09T03:14:00;100305.75;;;12.91
66113;BMP280;52893;52.870;5.822;2022-11-09T03:16:28;100311.69;;;12.93
66113;BMP280;52893;52.870;5.822;2022-11-09T03:18:57;100313.31;;;12.94
66113;BMP280;52893;52.870;5.822;2022-11-09T03:21:24;100311.88;;;13.00
66113;BMP280;52893;52.870;5.822;2022-11-09T03:23:51;100312.16;;;12.95
66113;BMP280;52893;52.870;5.822;2022-11-09T03:26:20;100309.06;;;12.97
66113;BMP280;52893;52.870;5.822;2022-11-09T03:28:49;100316.91;;;12.98
66113;BMP280;52893;52.870;5.822;2022-11-09T03:31:16;100316.91;;;12.98
66113;BMP280;52893;52.870;5.822;2022-11-09T03:33:45;100316.03;;;12.94
66113;BMP280;52893;52.870;5.822;2022-11-09T03:36:14;100313.63;;;12.93
66113;BMP280;52893;52.870;5.822;2022-11-09T03:38:41;100312.16;;;12.95
66113;BMP280;52893;52.870;5.822;2022-11-09T03:41:08;100321.84;;;12.93
66113;BMP280;52893;52.870;5.822;2022-11-09T03:43:36;100325.69;;;12.88
66113;BMP280;52893;52.870;5.822;2022-11-09T03:46:05;100333.44;;;12.86
66113;BMP280;52893;52.870;5.822;2022-11-09T03:48:32;100336.09;;;12.83
66113;BMP280;52893;52.870;5.822;2022-11-09T03:50:59;100337.53;;;12.77
66113;BMP280;52893;52.870;5.822;2022-11-09T03:53:26;100332.72;;;12.74
66113;BMP280;52893;52.870;5.822;2022-11-09T03:55:56;100335.75;;;12.69
66113;BMP280;52893;52.870;5.822;2022-11-09T03:58:23;100340.75;;;12.67
66113;BMP280;52893;52.870;5.822;2022-11-09T04:00:50;100350.91;;;12.66
66113;BMP280;52893;52.870;5.822;2022-11-09T04:03:18;100355.16;;;12.64
66113;BMP280;52893;52.870;5.822;2022-11-09T04:05:45;100366.00;;;12.60
66113;BMP280;52893;52.870;5.822;2022-11-09T04:08:13;100373.44;;;12.60
66113;BMP280;52893;52.870;5.822;2022-11-09T04:10:40;100381.66;;;12.60
66113;BMP280;52893;52.870;5.822;2022-11-09T04:13:07;100377.75;;;12.61
66113;BMP280;52893;52.870;5.822;2022-11-09T04:15:34;100384.22;;;12.68
66113;BMP280;52893;52.870;5.822;2022-11-09T04:18:02;100382.00;;;12.74
66113;BMP280;52893;52.870;5.822;2022-11-09T04:20:30;100380.97;;;12.78
66113;BMP280;52893;52.870;5.822;2022-11-09T04:22:59;100375.66;;;12.85
66113;BMP280;52893;52.870;5.822;2022-11-09T04:25:30;100364.50;;;12.90
66113;BMP280;52893;52.870;5.822;2022-11-09T04:27:59;100377.09;;;12.95
66113;BMP280;52893;52.870;5.822;2022-11-09T04:30:27;100383.38;;;12.95
66113;BMP280;52893;52.870;5.822;2022-11-09T04:32:56;100376.13;;;12.87
66113;BMP280;52893;52.870;5.822;2022-11-09T04:35:24;100382.47;;;12.91
66113;BMP280;52893;52.870;5.822;2022-11-09T04:37:53;100383.78;;;12.82
66113;BMP280;52893;52.870;5.822;2022-11-09T04:40:21;100385.78;;;12.81
66113;BMP280;52893;52.870;5.822;2022-11-09T04:42:48;100387.34;;;12.82
66113;BMP280;52893;52.870;5.822;2022-11-09T04:45:15;100389.66;;;12.80
66113;BMP280;52893;52.870;5.822;2022-11-09T04:47:43;100393.63;;;12.83
66113;BMP280;52893;52.870;5.822;2022-11-09T04:50:10;100401.81;;;12.83
66113;BMP280;52893;52.870;5.822;2022-11-09T04:52:37;100399.00;;;12.79
66113;BMP280;52893;52.870;5.822;2022-11-09T04:55:07;100390.50;;;12.69
66113;BMP280;52893;52.870;5.822;2022-11-09T04:57:34;100382.63;;;12.67
66113;BMP280;52893;52.870;5.822;2022-11-09T05:00:02;100373.09;;;12.61
66113;BMP280;52893;52.870;5.822;2022-11-09T05:02:30;100398.44;;;12.74
66113;BMP280;52893;52.870;5.822;2022-11-09T05:04:58;100388.44;;;12.66
66113;BMP280;52893;52.870;5.822;2022-11-09T05:07:25;100383.34;;;12.64
66113;BMP280;52893;52.870;5.822;2022-11-09T05:09:52;100402.25;;;12.69
66113;BMP280;52893;52.870;5.822;2022-11-09T05:12:20;100397.59;;;12.70
66113;BMP280;52893;52.870;5.822;2022-11-09T05:14:48;100387.50;;;12.74
66113;BMP280;52893;52.870;5.822;2022-11-09T05:17:15;100396.97;;;12.76
66113;BMP280;52893;52.870;5.822;2022-11-09T05:19:42;100388.50;;;12.81
66113;BMP280;52893;52.870;5.822;2022-11-09T05:22:09;100401.13;;;12.86
66113;BMP280;52893;52.870;5.822;2022-11-09T05:24:54;100400.78;;;12.87
66113;BMP280;52893;52.870;5.822;2022-11-09T05:27:22;100387.94;;;12.76
66113;BMP280;52893;52.870;5.822;2022-11-09T05:29:50;100400.78;;;12.87
66113;BMP280;52893;52.870;5.822;2022-11-09T05:32:17;100399.19;;;12.86
66113;BMP280;52893;52.870;5.822;2022-11-09T05:34:44;100408.38;;;12.94
66113;BMP280;52893;52.870;5.822;2022-11-09T05:37:11;100405.19;;;12.92
66113;BMP280;52893;52.870;5.822;2022-11-09T05:39:38;100393.44;;;12.91
66113;BMP280;52893;52.870;5.822;2022-11-09T05:42:05;100397.25;;;12.87
66113;BMP280;52893;52.870;5.822;2022-11-09T05:44:36;100385.50;;;12.86
66113;BMP280;52893;52.870;5.822;2022-11-09T05:47:03;100409.19;;;12.94
66113;BMP280;52893;52.870;5.822;2022-11-09T05:49:30;100406.09;;;12.96
66113;BMP280;52893;52.870;5.822;2022-11-09T05:51:57;100407.84;;;12.88
66113;BMP280;52893;52.870;5.822;2022-11-09T05:54:25;100406.34;;;12.91
66113;BMP280;52893;52.870;5.822;2022-11-09T05:56:52;100408.66;;;12.89
66113;BMP280;52893;52.870;5.822;2022-11-09T05:59:19;100418.81;;;12.88
66113;BMP280;52893;52.870;5.822;2022-11-09T06:01:47;100415.75;;;12.90
66113;BMP280;52893;52.870;5.822;2022-11-09T06:04:14;100416.94;;;12.92
66113;BMP280;52893;52.870;5.822;2022-11-09T06:06:42;100419.34;;;12.94
66113;BMP280;52893;52.870;5.822;2022-11-09T06:09:09;100423.34;;;12.96
66113;BMP280;52893;52.870;5.822;2022-11-09T06:11:36;100424.81;;;12.94
66113;BMP280;52893;52.870;5.822;2022-11-09T06:14:03;100414.94;;;12.89
66113;BMP280;52893;52.870;5.822;2022-11-09T06:16:30;100421.22;;;12.90
66113;BMP280;52893;52.870;5.822;2022-11-09T06:18:59;100418.25;;;12.83
66113;BMP280;52893;52.870;5.822;2022-11-09T06:21:27;100423.91;;;12.74
66113;BMP280;52893;52.870;5.822;2022-11-09T06:23:54;100422.75;;;12.75
66113;BMP280;52893;52.870;5.822;2022-11-09T06:26:21;100430.50;;;12.73
66113;BMP280;52893;52.870;5.822;2022-11-09T06:28:48;100420.97;;;12.67
66113;BMP280;52893;52.870;5.822;2022-11-09T06:31:16;100440.25;;;12.71
66113;BMP280;52893;52.870;5.822;2022-11-09T06:33:45;100435.38;;;12.64
66113;BMP280;52893;52.870;5.822;2022-11-09T06:36:14;100438.34;;;12.59
66113;BMP280;52893;52.870;5.822;2022-11-09T06:38:41;100430.84;;;12.56
66113;BMP280;52893;52.870;5.822;2022-11-09T06:41:08;100438.16;;;12.52
66113;BMP280;52893;52.870;5.822;2022-11-09T06:43:35;100445.22;;;12.53
66113;BMP280;52893;52.870;5.822;2022-11-09T06:46:03;100442.81;;;12.51
66113;BMP280;52893;52.870;5.822;2022-11-09T06:48:30;100454.56;;;12.52
66113;BMP280;52893;52.870;5.822;2022-11-09T06:51:01;100450.94;;;12.48
66113;BMP280;52893;52.870;5.822;2022-11-09T06:53:31;100447.72;;;12.46
66113;BMP280;52893;52.870;5.822;2022-11-09T06:56:00;100457.09;;;12.45
66113;BMP280;52893;52.870;5.822;2022-11-09T06:58:28;100449.25;;;12.43
66113;BMP280;52893;52.870;5.822;2022-11-09T07:00:56;100457.09;;;12.45
66113;BMP280;52893;52.870;5.822;2022-11-09T07:03:24;100450.75;;;12.41
66113;BMP280;52893;52.870;5.822;2022-11-09T07:05:51;100436.06;;;12.33
66113;BMP280;52893;52.870;5.822;2022-11-09T07:08:19;100450.00;;;12.44
66113;BMP280;52893;52.870;5.822;2022-11-09T07:10:47;100465.56;;;12.40
66113;BMP280;52893;52.870;5.822;2022-11-09T07:13:14;100466.25;;;12.37
66113;BMP280;52893;52.870;5.822;2022-11-09T07:15:41;100467.84;;;12.38
66113;BMP280;52893;52.870;5.822;2022-11-09T07:18:10;100469.09;;;12.40
66113;BMP280;52893;52.870;5.822;2022-11-09T07:20:37;100471.03;;;12.40
66113;BMP280;52893;52.870;5.822;2022-11-09T07:23:05;100463.97;;;12.39
66113;BMP280;52893;52.870;5.822;2022-11-09T07:25:32;100463.34;;;12.45
66113;BMP280;52893;52.870;5.822;2022-11-09T07:28:05;100475.91;;;12.46
66113;BMP280;52893;52.870;5.822;2022-11-09T07:30:33;100476.38;;;12.48
66113;BMP280;52893;52.870;5.822;2022-11-09T07:33:01;100476.47;;;12.52
66113;BMP280;52893;52.870;5.822;2022-11-09T07:35:29;100474.53;;;12.52
66113;BMP280;52893;52.870;5.822;2022-11-09T07:37:58;100473.03;;;12.55
66113;BMP280;52893;52.870;5.822;2022-11-09T07:40:26;100485.34;;;12.61
66113;BMP280;52893;52.870;5.822;2022-11-09T07:42:56;100465.44;;;12.48
66113;BMP280;52893;52.870;5.822;2022-11-09T07:45:25;100488.53;;;12.63
66113;BMP280;52893;52.870;5.822;2022-11-09T07:47:54;100490.56;;;12.66
66113;BMP280;52893;52.870;5.822;2022-11-09T07:50:21;100496.69;;;12.75
66113;BMP280;52893;52.870;5.822;2022-11-09T07:52:49;100501.94;;;12.80
66113;BMP280;52893;52.870;5.822;2022-11-09T07:55:16;100503.97;;;12.83
66113;BMP280;52893;52.870;5.822;2022-11-09T07:57:43;100507.63;;;12.87
66113;BMP280;52893;52.870;5.822;2022-11-09T08:00:12;100510.03;;;12.89
66113;BMP280;52893;52.870;5.822;2022-11-09T08:02:42;100510.53;;;12.94
66113;BMP280;52893;52.870;5.822;2022-11-09T08:05:09;100513.28;;;12.94
66113;BMP280;52893;52.870;5.822;2022-11-09T08:07:36;100513.47;;;13.01
66113;BMP280;52893;52.870;5.822;2022-11-09T08:10:04;100516.78;;;13.07
66113;BMP280;52893;52.870;5.822;2022-11-09T08:12:31;100513.75;;;13.12
66113;BMP280;52893;52.870;5.822;2022-11-09T08:14:58;100509.28;;;13.20
66113;BMP280;52893;52.870;5.822;2022-11-09T08:17:25;100503.78;;;13.20
66113;BMP280;52893;52.870;5.822;2022-11-09T08:19:54;100505.59;;;13.28
66113;BMP280;52893;52.870;5.822;2022-11-09T08:22:21;100501.91;;;13.36
66113;BMP280;52893;52.870;5.822;2022-11-09T08:24:48;100509.84;;;13.41
66113;BMP280;52893;52.870;5.822;2022-11-09T08:27:16;100508.44;;;13.47
66113;BMP280;52893;52.870;5.822;2022-11-09T08:29:44;100518.78;;;13.53
66113;BMP280;52893;52.870;5.822;2022-11-09T08:32:11;100520.91;;;13.60
66113;BMP280;52893;52.870;5.822;2022-11-09T08:34:38;100517.19;;;13.68
66113;BMP280;52893;52.870;5.822;2022-11-09T08:37:06;100523.13;;;13.70
66113;BMP280;52893;52.870;5.822;2022-11-09T08:39:34;100534.38;;;13.65
66113;BMP280;52893;52.870;5.822;2022-11-09T08:42:01;100521.16;;;13.71
66113;BMP280;52893;52.870;5.822;2022-11-09T08:44:28;100527.91;;;13.73
66113;BMP280;52893;52.870;5.822;2022-11-09T08:46:55;100505.84;;;13.70
66113;BMP280;52893;52.870;5.822;2022-11-09T08:49:22;100525.84;;;13.86
66113;BMP280;52893;52.870;5.822;2022-11-09T08:51:49;100526.91;;;13.97
66113;BMP280;52893;52.870;5.822;2022-11-09T08:54:18;100520.81;;;14.04
66113;BMP280;52893;52.870;5.822;2022-11-09T08:56:45;100522.13;;;14.10
66113;BMP280;52893;52.870;5.822;2022-11-09T08:59:12;100520.41;;;14.21
66113;BMP280;52893;52.870;5.822;2022-11-09T09:01:39;100517.72;;;14.24
66113;BMP280;52893;52.870;5.822;2022-11-09T09:04:06;100532.50;;;14.35
66113;BMP280;52893;52.870;5.822;2022-11-09T09:06:33;100533.44;;;14.43
66113;BMP280;52893;52.870;5.822;2022-11-09T09:09:00;100529.63;;;14.47
66113;BMP280;52893;52.870;5.822;2022-11-09T09:11:29;100523.34;;;14.47
66113;BMP280;52893;52.870;5.822;2022-11-09T09:13:56;100538.09;;;14.58
66113;BMP280;52893;52.870;5.822;2022-11-09T09:16:23;100538.25;;;14.65
66113;BMP280;52893;52.870;5.822;2022-11-09T09:18:50;100545.75;;;14.68
66113;BMP280;52893;52.870;5.822;2022-11-09T09:21:17;100535.72;;;14.76
66113;BMP280;52893;52.870;5.822;2022-11-09T09:23:46;100538.97;;;14.81
66113;BMP280;52893;52.870;5.822;2022-11-09T09:26:14;100533.53;;;14.85
66113;BMP280;52893;52.870;5.822;2022-11-09T09:28:42;100536.06;;;14.93
66113;BMP280;52893;52.870;5.822;2022-11-09T09:31:10;100534.59;;;14.99
66113;BMP280;52893;52.870;5.822;2022-11-09T09:33:37;100537.13;;;15.08
66113;BMP280;52893;52.870;5.822;2022-11-09T09:36:05;100534.06;;;15.13
66113;BMP280;52893;52.870;5.822;2022-11-09T09:38:32;100539.22;;;15.15
66113;BMP280;52893;52.870;5.822;2022-11-09T09:41:01;100548.75;;;15.21
66113;BMP280;52893;52.870;5.822;2022-11-09T09:43:31;100545.16;;;15.17
66113;BMP280;52893;52.870;5.822;2022-11-09T09:46:02;100537.56;;;15.10
66113;BMP280;52893;52.870;5.822;2022-11-09T09:48:35;100547.47;;;15.15
66113;BMP280;52893;52.870;5.822;2022-11-09T09:51:10;100552.38;;;15.25
66113;BMP280;52893;52.870;5.822;2022-11-09T09:53:42;100557.44;;;15.23
66113;BMP280;52893;52.870;5.822;2022-11-09T09:56:14;100557.94;;;15.28
66113;BMP280;52893;52.870;5.822;2022-11-09T09:58:46;100566.06;;;15.21
66113;BMP280;52893;52.870;5.822;2022-11-09T10:01:18;100559.03;;;15.24
66113;BMP280;52893;52.870;5.822;2022-11-09T10:03:46;100545.75;;;15.07
66113;BMP280;52893;52.870;5.822;2022-11-09T10:06:25;100563.44;;;15.09
66113;BMP280;52893;52.870;5.822;2022-11-09T10:09:11;100565.25;;;15.01
66113;BMP280;52893;52.870;5.822;2022-11-09T10:11:48;100564.59;;;15.08
66113;BMP280;52893;52.870;5.822;2022-11-09T10:14:39;100570.91;;;15.09
66113;BMP280;52893;52.870;5.822;2022-11-09T10:17:19;100577.38;;;15.16
66113;BMP280;52893;52.870;5.822;2022-11-09T10:20:00;100573.81;;;15.16
66113;BMP280;52893;52.870;5.822;2022-11-09T10:22:38;100574.06;;;15.30
66113;BMP280;52893;52.870;5.822;2022-11-09T10:25:13;100573.25;;;15.29
66113;BMP280;52893;52.870;5.822;2022-11-09T10:27:46;100569.59;;;15.22
66113;BMP280;52893;52.870;5.822;2022-11-09T10:30:17;100565.56;;;15.16
66113;BMP280;52893;52.870;5.822;2022-11-09T10:32:49;100561.56;;;15.13
66113;BMP280;52893;52.870;5.822;2022-11-09T10:35:19;100577.19;;;15.09
66113;BMP280;52893;52.870;5.822;2022-11-09T10:37:48;100565.19;;;14.98
66113;BMP280;52893;52.870;5.822;2022-11-09T10:40:20;100569.84;;;14.94
66113;BMP280;52893;52.870;5.822;2022-11-09T10:43:09;100562.97;;;14.84
66113;BMP280;52893;52.870;5.822;2022-11-09T10:46:00;100568.03;;;14.82
66113;BMP280;52893;52.870;5.822;2022-11-09T10:48:51;100564.78;;;14.77
66113;BMP280;52893;52.870;5.822;2022-11-09T10:51:39;100557.22;;;14.55
66113;BMP280;52893;52.870;5.822;2022-11-09T10:54:26;100569.28;;;14.66
66113;BMP280;52893;52.870;5.822;2022-11-09T10:57:14;100581.91;;;14.70
66113;BMP280;52893;52.870;5.822;2022-11-09T11:00:02;100561.38;;;14.64
66113;BMP280;52893;52.870;5.822;2022-11-09T11:02:48;100581.53;;;14.72
66113;BMP280;52893;52.870;5.822;2022-11-09T11:05:36;100577.06;;;14.64
66113;BMP280;52893;52.870;5.822;2022-11-09T11:08:28;100557.69;;;14.57
66113;BMP280;52893;52.870;5.822;2022-11-09T11:11:20;100560.56;;;14.64
66113;BMP280;52893;52.870;5.822;2022-11-09T11:14:13;100564.28;;;14.71
66113;BMP280;52893;52.870;5.822;2022-11-09T11:17:00;100567.88;;;14.75
66113;BMP280;52893;52.870;5.822;2022-11-09T11:19:46;100564.00;;;14.76
66113;BMP280;52893;52.870;5.822;2022-11-09T11:22:33;100573.09;;;14.80
66113;BMP280;52893;52.870;5.822;2022-11-09T11:25:21;100567.34;;;14.89
66113;BMP280;52893;52.870;5.822;2022-11-09T11:28:16;100562.63;;;14.86
66113;BMP280;52893;52.870;5.822;2022-11-09T11:31:08;100561.16;;;14.92
66113;BMP280;52893;52.870;5.822;2022-11-09T11:33:55;100554.72;;;14.84
66113;BMP280;52893;52.870;5.822;2022-11-09T11:36:52;100559.06;;;14.85
66113;BMP280;52893;52.870;5.822;2022-11-09T11:39:53;100558.50;;;14.76
66113;BMP280;52893;52.870;5.822;2022-11-09T11:46:13;100558.53;;;14.80
66113;BMP280;52893;52.870;5.822;2022-11-09T11:49:26;100547.56;;;14.80
66113;BMP280;52893;52.870;5.822;2022-11-09T11:52:20;100513.50;;;14.84
66113;BMP280;52893;52.870;5.822;2022-11-09T11:55:29;100537.78;;;15.01
66113;BMP280;52893;52.870;5.822;2022-11-09T11:58:24;100541.69;;;15.00
66113;BMP280;52893;52.870;5.822;2022-11-09T12:01:25;100530.91;;;15.11
66113;BMP280;52893;52.870;5.822;2022-11-09T12:04:33;100536.63;;;15.02
66113;BMP280;52893;52.870;5.822;2022-11-09T12:07:30;100541.25;;;14.98
66113;BMP280;52893;52.870;5.822;2022-11-09T12:10:30;100540.38;;;14.94
66113;BMP280;52893;52.870;5.822;2022-11-09T12:13:34;100554.13;;;14.94
66113;BMP280;52893;52.870;5.822;2022-11-09T12:16:28;100554.56;;;14.77
66113;BMP280;52893;52.870;5.822;2022-11-09T12:19:26;100559.31;;;14.61
66113;BMP280;52893;52.870;5.822;2022-11-09T12:22:22;100548.53;;;14.33
66113;BMP280;52893;52.870;5.822;2022-11-09T12:25:15;100552.22;;;14.22
66113;BMP280;52893;52.870;5.822;2022-11-09T12:28:17;100548.72;;;14.25
66113;BMP280;52893;52.870;5.822;2022-11-09T12:31:09;100539.09;;;14.15
66113;BMP280;52893;52.870;5.822;2022-11-09T12:34:00;100545.31;;;14.12
66113;BMP280;52893;52.870;5.822;2022-11-09T12:36:50;100543.44;;;14.16
66113;BMP280;52893;52.870;5.822;2022-11-09T12:39:42;100538.59;;;14.10
66113;BMP280;52893;52.870;5.822;2022-11-09T12:42:33;100528.75;;;14.09
66113;BMP280;52893;52.870;5.822;2022-11-09T12:45:26;100560.59;;;14.29
66113;BMP280;52893;52.870;5.822;2022-11-09T12:48:19;100551.84;;;14.23
66113;BMP280;52893;52.870;5.822;2022-11-09T12:51:06;100566.63;;;14.19
66113;BMP280;52893;52.870;5.822;2022-11-09T12:53:54;100571.03;;;14.39
66113;BMP280;52893;52.870;5.822;2022-11-09T12:56:45;100570.16;;;14.35
66113;BMP280;52893;52.870;5.822;2022-11-09T12:59:35;100577.66;;;14.38
66113;BMP280;52893;52.870;5.822;2022-11-09T13:02:28;100586.22;;;14.52
66113;BMP280;52893;52.870;5.822;2022-11-09T13:05:29;100571.34;;;14.53
66113;BMP280;52893;52.870;5.822;2022-11-09T13:08:18;100581.31;;;14.61
66113;BMP280;52893;52.870;5.822;2022-11-09T13:11:18;100589.28;;;14.66
66113;BMP280;52893;52.870;5.822;2022-11-09T13:14:30;100587.31;;;14.67
66113;BMP280;52893;52.870;5.822;2022-11-09T13:20:48;100596.47;;;14.55
66113;BMP280;52893;52.870;5.822;2022-11-09T13:23:36;100582.91;;;14.62
66113;BMP280;52893;52.870;5.822;2022-11-09T13:29:47;100603.66;;;14.60
66113;BMP280;52893;52.870;5.822;2022-11-09T13:32:33;100608.41;;;14.63
66113;BMP280;52893;52.870;5.822;2022-11-09T13:35:57;100620.63;;;14.46
66113;BMP280;52893;52.870;5.822;2022-11-09T13:38:44;100624.91;;;14.28
66113;BMP280;52893;52.870;5.822;2022-11-09T13:41:41;100618.19;;;14.10
66113;BMP280;52893;52.870;5.822;2022-11-09T13:44:27;100627.38;;;14.01
66113;BMP280;52893;52.870;5.822;2022-11-09T13:47:21;100605.53;;;13.74
66113;BMP280;52893;52.870;5.822;2022-11-09T13:50:15;100603.66;;;13.62
66113;BMP280;52893;52.870;5.822;2022-11-09T13:53:03;100653.38;;;13.76
66113;BMP280;52893;52.870;5.822;2022-11-09T13:55:48;100654.00;;;13.42
66113;BMP280;52893;52.870;5.822;2022-11-09T13:58:36;100671.25;;;13.15
66113;BMP280;52893;52.870;5.822;2022-11-09T14:01:27;100668.91;;;12.89
66113;BMP280;52893;52.870;5.822;2022-11-09T14:04:20;100674.72;;;12.63
66113;BMP280;52893;52.870;5.822;2022-11-09T14:07:09;100683.31;;;12.49
66113;BMP280;52893;52.870;5.822;2022-11-09T14:10:02;100677.34;;;12.35
66113;BMP280;52893;52.870;5.822;2022-11-09T14:13:03;100679.06;;;12.28
66113;BMP280;52893;52.870;5.822;2022-11-09T14:15:56;100671.53;;;12.25
66113;BMP280;52893;52.870;5.822;2022-11-09T14:18:48;100667.31;;;12.15
66113;BMP280;52893;52.870;5.822;2022-11-09T14:21:42;100672.22;;;12.22
66113;BMP280;52893;52.870;5.822;2022-11-09T14:24:30;100678.34;;;12.19
66113;BMP280;52893;52.870;5.822;2022-11-09T14:27:20;100665.72;;;12.14
66113;BMP280;52893;52.870;5.822;2022-11-09T14:30:20;100682.81;;;12.23
66113;BMP280;52893;52.870;5.822;2022-11-09T14:33:24;100705.72;;;12.19
66113;BMP280;52893;52.870;5.822;2022-11-09T14:36:10;100714.41;;;12.21
66113;BMP280;52893;52.870;5.822;2022-11-09T14:38:59;100699.00;;;12.16
66113;BMP280;52893;52.870;5.822;2022-11-09T14:41:45;100716.66;;;12.19
66113;BMP280;52893;52.870;5.822;2022-11-09T14:44:36;100709.03;;;12.24
66113;BMP280;52893;52.870;5.822;2022-11-09T14:47:27;100702.88;;;12.15